Time;durP1;ratioP1;P1;durP2;ratioP2;P2;SDS_P1;SDS_P2;PMS_P1;PMS_P2;Temp;Humidity;BMP_temperature;BMP_pressure;BME280_temperature;BME280_humidity;BME280_pressure;Samples;Min_cycle;Max_cycle;Signal;HPM_P1;HPM_P2
2024/03/20 00:10:22;;;;;;;23.3;13.4;;;;;;;-1.01;84.11;99338.333333333;;;;
2024/03/20 00:21:22;;;;;;;23.3;13.4;;;;;;;-1.04;83.87;99321.666666667;;;;
2024/03/20 00:31:22;;;;;;;23.3;13.4;;;;;;;-1.12;83.52;99320;;;;
2024/03/20 00:41:22;;;;;;;23;11.4;;;;;;;-1.22;83.83;99320;;;;
2024/03/20 00:52:22;;;;;;;23;11.4;;;;;;;-1.33;84.1;99311.666666667;;;;
2024/03/20 01:03:22;;;;;;;23;11.4;;;;;;;-1.45;85.02;99298.333333333;;;;
2024/03/20 01:14:22;;;;;;;20;12.7;;;;;;;-1.5;85.54;99288.333333333;;;;
2024/03/20 01:24:22;;;;;;;20;12.7;;;;;;;-1.56;85.56;99285;;;;
2024/03/20 01:35:22;;;;;;;25.4;15.5;;;;;;;-1.65;85.36;99278.333333333;;;;
2024/03/20 01:46:22;;;;;;;25.4;15.5;;;;;;;-1.69;84.9;99278.333333333;;;;
2024/03/20 01:56:22;;;;;;;25.4;15.5;;;;;;;-1.8;84.78;99285;;;;
2024/03/20 02:06:22;;;;;;;21.2;11.5;;;;;;;-1.87;85.78;99281.666666667;;;;
2024/03/20 02:17:22;;;;;;;21.2;11.5;;;;;;;-1.88;86.2;99281.666666667;;;;
2024/03/20 02:27:22;;;;;;;21.2;11.5;;;;;;;-1.92;85.72;99290;;;;
2024/03/20 02:37:22;;;;;;;27.2;14.5;;;;;;;-1.91;86.32;99285;;;;
2024/03/20 02:48:22;;;;;;;27.2;14.5;;;;;;;-1.78;87.17;99268.333333333;;;;
2024/03/20 02:58:22;;;;;;;27.2;14.5;;;;;;;-1.88;86.65;99261.666666667;;;;
2024/03/20 03:08:23;;;;;;;21.6;13.9;;;;;;;-1.81;86.92;99266.666666667;;;;
2024/03/20 03:19:22;;;;;;;21.6;13.9;;;;;;;-1.86;86.4;99270;;;;
2024/03/20 03:30:22;;;;;;;21.6;13.9;;;;;;;-1.92;85.9;99276.666666667;;;;
2024/03/20 03:41:22;;;;;;;21.1;12.4;;;;;;;-2.09;85.6;99286.666666667;;;;
2024/03/20 03:51:22;;;;;;;21.1;12.4;;;;;;;-2.29;86.26;99285;;;;
2024/03/20 04:02:22;;;;;;;21.1;12.4;;;;;;;-2.27;86.11;99290;;;;
2024/03/20 04:12:22;;;;;;;21.4;13.5;;;;;;;-2.35;86.35;99288.333333333;;;;
2024/03/20 04:23:22;;;;;;;21.4;13.5;;;;;;;-2.36;86.77;99285;;;;
2024/03/20 04:33:22;;;;;;;21.4;13.5;;;;;;;-2.43;86.47;99286.666666667;;;;
2024/03/20 04:43:22;;;;;;;24.7;14.6;;;;;;;-2.43;86.29;99278.333333333;;;;
2024/03/20 04:53:23;;;;;;;24.7;14.6;;;;;;;-2.42;86.47;99280;;;;
2024/03/20 05:03:22;;;;;;;24.7;14.6;;;;;;;-2.33;87.05;99258;;;;
2024/03/20 05:14:22;;;;;;;22;12.1;;;;;;;-2.15;87.29;99290;;;;
2024/03/20 05:24:22;;;;;;;22;12.1;;;;;;;-1.95;87.29;99290;;;;
2024/03/20 05:35:23;;;;;;;24.6;16.5;;;;;;;-1.69;87.19;99301.666666667;;;;
2024/03/20 05:46:22;;;;;;;24.6;16.5;;;;;;;-1.28;87.05;99308.333333333;;;;
2024/03/20 05:57:22;;;;;;;24.6;16.5;;;;;;;-0.91;86.02;99313.333333333;;;;
2024/03/20 06:07:22;;;;;;;27.4;17.9;;;;;;;-0.8;86.1;99321.666666667;;;;
2024/03/20 06:18:22;;;;;;;27.4;17.9;;;;;;;-0.2;86.47;99306.666666667;;;;
2024/03/20 06:29:22;;;;;;;27.4;17.9;;;;;;;0.42;85.84;99318.333333333;;;;
2024/03/20 06:40:27;;;;;;;40.1;22.8;;;;;;;0.88;84.25;99336.666666667;;;;
2024/03/20 06:51:22;;;;;;;40.1;22.8;;;;;;;1.34;84.09;99338.333333333;;;;
2024/03/20 07:01:22;;;;;;;40.1;22.8;;;;;;;1.94;83.74;99343.333333333;;;;
2024/03/20 07:11:22;;;;;;;40.7;21.6;;;;;;;2.51;82.29;99343.333333333;;;;
2024/03/20 07:22:22;;;;;;;40.7;21.6;;;;;;;2.92;75.9;99335;;;;
2024/03/20 07:33:22;;;;;;;40.7;21.6;;;;;;;3.51;76.63;99335;;;;
2024/03/20 07:43:22;;;;;;;26.2;15.4;;;;;;;4.3;73.1;99336.666666667;;;;
2024/03/20 07:54:24;;;;;;;26.2;15.4;;;;;;;4.71;70.89;99336.666666667;;;;
2024/03/20 08:05:22;;;;;;;23.7;14.9;;;;;;;5.22;67.99;99343.333333333;;;;
2024/03/20 08:15:22;;;;;;;23.7;14.9;;;;;;;5.36;67.86;99346.666666667;;;;
2024/03/20 08:25:22;;;;;;;23.7;14.9;;;;;;;5.89;65.7;99345;;;;
2024/03/20 08:36:23;;;;;;;25.4;17.4;;;;;;;6.52;65.8;99333.333333333;;;;
2024/03/20 08:46:24;;;;;;;25.4;17.4;;;;;;;7.01;64.23;99323.333333333;;;;
2024/03/20 08:57:22;;;;;;;25.4;17.4;;;;;;;7.17;60.66;99310;;;;
2024/03/20 09:07:22;;;;;;;30.1;17.6;;;;;;;7.75;58.62;99308.333333333;;;;
2024/03/20 09:18:22;;;;;;;30.1;17.6;;;;;;;8.19;57.76;99305;;;;
2024/03/20 09:28:22;;;;;;;30.1;17.6;;;;;;;8.55;58.51;99298.333333333;;;;
2024/03/20 09:39:24;;;;;;;21.1;14.5;;;;;;;8.86;53.49;99286.666666667;;;;
2024/03/20 09:50:22;;;;;;;21.1;14.5;;;;;;;9.21;53.37;99278.333333333;;;;
2024/03/20 10:00:22;;;;;;;21.1;14.5;;;;;;;9.37;53.7;99271.666666667;;;;
2024/03/20 10:11:23;;;;;;;25.1;12.4;;;;;;;9.92;51.76;99251.666666667;;;;
2024/03/20 10:21:22;;;;;;;25.1;12.4;;;;;;;10.26;49.29;99246.666666667;;;;
2024/03/20 10:31:22;;;;;;;25.1;12.4;;;;;;;10.48;48.28;99236.666666667;;;;
2024/03/20 10:41:22;;;;;;;16.4;11.3;;;;;;;10.43;48.92;99221.666666667;;;;
2024/03/20 10:51:22;;;;;;;16.4;11.3;;;;;;;10.52;48.46;99216.666666667;;;;
2024/03/20 11:02:22;;;;;;;16.4;11.3;;;;;;;11.11;49.19;99203.333333333;;;;
2024/03/20 11:13:23;;;;;;;14.7;9.9;;;;;;;11.62;45.41;99193.333333333;;;;
2024/03/20 11:24:23;;;;;;;14.7;9.9;;;;;;;11.64;44.07;99185;;;;
2024/03/20 11:35:23;;;;;;;15.1;9.9;;;;;;;11.53;45.67;99176.666666667;;;;
2024/03/20 11:45:22;;;;;;;15.1;9.9;;;;;;;12.25;41.98;99168.333333333;;;;
2024/03/20 11:56:22;;;;;;;15.1;9.9;;;;;;;12.41;42.61;99160;;;;
2024/03/20 12:06:25;;;;;;;13.5;8.9;;;;;;;12.84;44.2;99155;;;;
2024/03/20 12:17:23;;;;;;;13.5;8.9;;;;;;;12.74;43.91;99148.333333333;;;;
2024/03/20 12:28:22;;;;;;;13.5;8.9;;;;;;;12.95;41.38;99136.666666667;;;;
2024/03/20 12:39:23;;;;;;;10.2;8.4;;;;;;;13.12;41.09;99140;;;;
2024/03/20 12:49:22;;;;;;;10.2;8.4;;;;;;;13.3;42.21;99128.333333333;;;;
2024/03/20 13:00:23;;;;;;;10.2;8.4;;;;;;;13.41;41.85;99125;;;;
2024/03/20 13:11:22;;;;;;;11.4;8;;;;;;;13.22;40.89;99116.666666667;;;;
2024/03/20 13:21:24;;;;;;;11.4;8;;;;;;;13.43;41.07;99115;;;;
2024/03/20 13:32:24;;;;;;;11.4;8;;;;;;;13.41;41.29;99108.333333333;;;;
2024/03/20 13:42:33;;;;;;;11.6;8.9;;;;;;;13.66;42.75;99100;;;;
2024/03/20 13:52:24;;;;;;;11.6;8.9;;;;;;;13.59;41.82;99095;;;;
2024/03/20 14:03:22;;;;;;;12.3;9.3;;;;;;;13.65;42.51;99093.333333333;;;;
2024/03/20 14:14:22;;;;;;;12.3;9.3;;;;;;;14.21;41.71;99083.333333333;;;;
2024/03/20 14:24:24;;;;;;;12.3;9.3;;;;;;;14.02;40.63;99085;;;;
2024/03/20 14:35:22;;;;;;;13.7;9.7;;;;;;;14.17;40.42;99075;;;;
2024/03/20 14:45:23;;;;;;;13.7;9.7;;;;;;;14.02;39.51;99070;;;;
2024/03/20 14:56:22;;;;;;;13.7;9.7;;;;;;;14.48;40.27;99061.666666667;;;;
2024/03/20 15:07:24;;;;;;;13.7;11;;;;;;;14.53;39.51;99061.666666667;;;;
2024/03/20 15:17:23;;;;;;;13.7;11;;;;;;;14.25;41;99056.666666667;;;;
2024/03/20 15:28:24;;;;;;;13.7;11;;;;;;;13.68;41.68;99053.333333333;;;;
2024/03/20 15:39:23;;;;;;;17.2;12;;;;;;;13.45;42.77;99058.333333333;;;;
2024/03/20 15:50:24;;;;;;;17.2;12;;;;;;;13.25;43.77;99060;;;;
2024/03/20 16:00:23;;;;;;;17.2;12;;;;;;;12.76;44.87;99060;;;;
2024/03/20 16:11:23;;;;;;;13.8;11.3;;;;;;;12.25;46.51;99058.333333333;;;;
2024/03/20 16:22:23;;;;;;;13.8;11.3;;;;;;;11.86;47.46;99063.333333333;;;;
2024/03/20 16:32:23;;;;;;;13.8;11.3;;;;;;;11.38;48.08;99071.666666667;;;;
2024/03/20 16:43:24;;;;;;;14;9.9;;;;;;;10.82;52.98;99076.666666667;;;;
2024/03/20 16:53:23;;;;;;;14;9.9;;;;;;;10.41;54.81;99078.333333333;;;;
2024/03/20 17:04:25;;;;;;;15.5;9;;;;;;;10.01;55.09;99078.333333333;;;;
2024/03/20 17:14:22;;;;;;;15.5;9;;;;;;;9.76;55.42;99078.333333333;;;;
2024/03/20 17:25:23;;;;;;;15.5;9;;;;;;;9.43;56.55;99086.666666667;;;;
2024/03/20 17:35:23;;;;;;;21.5;14.6;;;;;;;9.2;57.83;99080;;;;
2024/03/20 17:45:24;;;;;;;21.5;14.6;;;;;;;8.94;58.4;99086.666666667;;;;
2024/03/20 17:56:23;;;;;;;21.5;14.6;;;;;;;8.71;59.42;99091.666666667;;;;
2024/03/20 18:07:22;;;;;;;31.6;21;;;;;;;8.53;60.03;99105;;;;
2024/03/20 18:18:22;;;;;;;31.6;21;;;;;;;8.43;60.86;99111.666666667;;;;
2024/03/20 18:28:24;;;;;;;31.6;21;;;;;;;8.26;61.19;99110;;;;
2024/03/20 18:39:25;;;;;;;32;20;;;;;;;8.1;62.07;99108.333333333;;;;
2024/03/20 18:50:22;;;;;;;32;20;;;;;;;7.9;62.48;99103.333333333;;;;
2024/03/20 19:01:26;;;;;;;32;20;;;;;;;7.65;62.63;99101.666666667;;;;
2024/03/20 19:12:22;;;;;;;39.4;25.1;;;;;;;7.41;62.98;99105;;;;
2024/03/20 19:22:23;;;;;;;39.4;25.1;;;;;;;7.23;63.88;99103.333333333;;;;
2024/03/20 19:32:23;;;;;;;39.4;25.1;;;;;;;7.03;65.16;99106.666666667;;;;
2024/03/20 19:43:23;;;;;;;34.1;19.5;;;;;;;6.86;65.69;99120;;;;
2024/03/20 19:53:22;;;;;;;34.1;19.5;;;;;;;6.82;66.89;99131.666666667;;;;
2024/03/20 20:03:23;;;;;;;37.4;22;;;;;;;6.73;66.64;99133.333333333;;;;
2024/03/20 20:14:23;;;;;;;37.4;22;;;;;;;6.59;67.96;99125;;;;
2024/03/20 20:24:23;;;;;;;37.4;22;;;;;;;6.44;68.36;99123.333333333;;;;
2024/03/20 20:35:23;;;;;;;29.7;20.7;;;;;;;6.2;68.13;99123.333333333;;;;
2024/03/20 20:45:23;;;;;;;29.7;20.7;;;;;;;5.96;70.65;99130;;;;
2024/03/20 20:56:23;;;;;;;29.7;20.7;;;;;;;5.82;69.69;99135;;;;
2024/03/20 21:27:23;;;;;;;31.5;18.9;;;;;;;5.19;72.75;99131.666666667;;;;
2024/03/20 21:37:23;;;;;;;29.7;17.5;;;;;;;4.98;72.47;99128.333333333;;;;
2024/03/20 21:48:23;;;;;;;29.7;17.5;;;;;;;4.73;72.73;99128.333333333;;;;
2024/03/20 21:58:23;;;;;;;29.7;17.5;;;;;;;4.63;72.96;99123.333333333;;;;
2024/03/20 22:09:23;;;;;;;30;17.2;;;;;;;4.49;73.1;99120;;;;
2024/03/20 22:20:24;;;;;;;30;17.2;;;;;;;4.3;74.35;99118.333333333;;;;
2024/03/20 22:30:23;;;;;;;30;17.2;;;;;;;4.11;77.62;99115;;;;
2024/03/20 22:41:22;;;;;;;33.5;18.9;;;;;;;4.04;77.55;99113.333333333;;;;
2024/03/20 22:51:23;;;;;;;33.5;18.9;;;;;;;3.98;75.71;99120;;;;
2024/03/20 23:01:23;;;;;;;33.5;18.9;;;;;;;3.78;75.8;99118.333333333;;;;
2024/03/20 23:11:23;;;;;;;33.4;18.3;;;;;;;3.63;75.69;99118.333333333;;;;
2024/03/20 23:21:23;;;;;;;33.4;18.3;;;;;;;3.35;77.75;99111.666666667;;;;
2024/03/20 23:31:23;;;;;;;33.4;18.3;;;;;;;3.22;79.28;99110;;;;
2024/03/20 23:42:23;;;;;;;32;17.6;;;;;;;3.17;79.85;99105;;;;
2024/03/20 23:52:23;;;;;;;32;17.6;;;;;;;3.16;80.01;99110;;;;
